sensor_id;sensor_type;location;lat;lon;timestamp;P1;durP1;ratioP1;P2;durP2;ratioP2
43154;SDS011;34212;51.018;13.586;2023-03-01T00:03:07;26.35;;;16.45;;
43154;SDS011;34212;51.018;13.586;2023-03-01T00:08:09;26.17;;;15.43;;
43154;SDS011;34212;51.018;13.586;2023-03-01T00:13:10;24.67;;;16.25;;
43154;SDS011;34212;51.018;13.586;2023-03-01T00:18:12;28.65;;;17.10;;
43154;SDS011;34212;51.018;13.586;2023-03-01T00:23:13;26.52;;;16.20;;
43154;SDS011;34212;51.018;13.586;2023-03-01T00:28:15;27.40;;;15.40;;
43154;SDS011;34212;51.018;13.586;2023-03-01T00:33:18;24.33;;;14.75;;
43154;SDS011;34212;51.018;13.586;2023-03-01T00:38:19;23.67;;;15.90;;
43154;SDS011;34212;51.018;13.586;2023-03-01T00:43:21;25.05;;;14.32;;
43154;SDS011;34212;51.018;13.586;2023-03-01T00:48:23;24.63;;;13.95;;
43154;SDS011;34212;51.018;13.586;2023-03-01T00:53:24;25.52;;;13.82;;
43154;SDS011;34212;51.018;13.586;2023-03-01T00:58:26;25.00;;;13.25;;
43154;SDS011;34212;51.018;13.586;2023-03-01T01:03:27;21.63;;;12.90;;
43154;SDS011;34212;51.018;13.586;2023-03-01T01:08:29;19.52;;;12.15;;
43154;SDS011;34212;51.018;13.586;2023-03-01T01:13:31;19.50;;;11.93;;
43154;SDS011;34212;51.018;13.586;2023-03-01T01:18:32;25.10;;;12.35;;
43154;SDS011;34212;51.018;13.586;2023-03-01T01:23:34;22.67;;;13.20;;
43154;SDS011;34212;51.018;13.586;2023-03-01T01:28:35;24.67;;;14.15;;
43154;SDS011;34212;51.018;13.586;2023-03-01T01:33:37;24.60;;;14.13;;
43154;SDS011;34212;51.018;13.586;2023-03-01T01:38:39;26.88;;;15.40;;
43154;SDS011;34212;51.018;13.586;2023-03-01T01:43:44;29.02;;;14.45;;
43154;SDS011;34212;51.018;13.586;2023-03-01T01:49:00;24.02;;;13.93;;
43154;SDS011;34212;51.018;13.586;2023-03-01T01:54:06;23.17;;;12.57;;
43154;SDS011;34212;51.018;13.586;2023-03-01T01:59:12;24.02;;;13.82;;
43154;SDS011;34212;51.018;13.586;2023-03-01T02:04:15;22.25;;;13.18;;
43154;SDS011;34212;51.018;13.586;2023-03-01T02:09:17;24.85;;;14.07;;
43154;SDS011;34212;51.018;13.586;2023-03-01T02:14:22;23.25;;;13.32;;
43154;SDS011;34212;51.018;13.586;2023-03-01T02:24:45;25.20;;;15.07;;
43154;SDS011;34212;51.018;13.586;2023-03-01T02:29:49;26.42;;;14.95;;
43154;SDS011;34212;51.018;13.586;2023-03-01T02:34:51;19.17;;;12.35;;
43154;SDS011;34212;51.018;13.586;2023-03-01T02:39:57;23.45;;;14.25;;
43154;SDS011;34212;51.018;13.586;2023-03-01T02:45:00;20.80;;;13.38;;
43154;SDS011;34212;51.018;13.586;2023-03-01T02:50:02;21.20;;;13.75;;
43154;SDS011;34212;51.018;13.586;2023-03-01T02:55:20;19.63;;;11.20;;
43154;SDS011;34212;51.018;13.586;2023-03-01T03:00:26;18.17;;;10.77;;
43154;SDS011;34212;51.018;13.586;2023-03-01T03:05:37;19.95;;;10.65;;
43154;SDS011;34212;51.018;13.586;2023-03-01T03:10:40;18.90;;;10.93;;
43154;SDS011;34212;51.018;13.586;2023-03-01T03:15:42;20.73;;;11.73;;
43154;SDS011;34212;51.018;13.586;2023-03-01T03:20:44;20.87;;;11.60;;
43154;SDS011;34212;51.018;13.586;2023-03-01T03:25:50;20.67;;;11.57;;
43154;SDS011;34212;51.018;13.586;2023-03-01T03:30:52;24.70;;;13.85;;
43154;SDS011;34212;51.018;13.586;2023-03-01T03:35:53;21.27;;;12.15;;
43154;SDS011;34212;51.018;13.586;2023-03-01T03:41:02;20.58;;;12.13;;
43154;SDS011;34212;51.018;13.586;2023-03-01T03:46:06;24.67;;;13.05;;
43154;SDS011;34212;51.018;13.586;2023-03-01T03:51:15;20.17;;;12.32;;
43154;SDS011;34212;51.018;13.586;2023-03-01T03:56:18;21.83;;;13.18;;
43154;SDS011;34212;51.018;13.586;2023-03-01T04:01:19;23.25;;;13.30;;
43154;SDS011;34212;51.018;13.586;2023-03-01T04:06:21;18.90;;;12.07;;
43154;SDS011;34212;51.018;13.586;2023-03-01T04:11:23;19.25;;;12.10;;
43154;SDS011;34212;51.018;13.586;2023-03-01T04:16:27;15.65;;;10.35;;
43154;SDS011;34212;51.018;13.586;2023-03-01T04:21:30;19.83;;;11.43;;
43154;SDS011;34212;51.018;13.586;2023-03-01T04:26:31;19.50;;;12.18;;
43154;SDS011;34212;51.018;13.586;2023-03-01T04:31:33;21.30;;;12.38;;
43154;SDS011;34212;51.018;13.586;2023-03-01T04:36:35;19.25;;;11.70;;
43154;SDS011;34212;51.018;13.586;2023-03-01T04:41:38;20.63;;;12.30;;
43154;SDS011;34212;51.018;13.586;2023-03-01T04:46:40;20.08;;;11.65;;
43154;SDS011;34212;51.018;13.586;2023-03-01T04:51:41;17.10;;;10.65;;
43154;SDS011;34212;51.018;13.586;2023-03-01T04:56:44;19.10;;;10.80;;
43154;SDS011;34212;51.018;13.586;2023-03-01T05:01:45;19.27;;;11.50;;
43154;SDS011;34212;51.018;13.586;2023-03-01T05:06:47;22.35;;;11.93;;
43154;SDS011;34212;51.018;13.586;2023-03-01T05:11:49;19.13;;;10.68;;
43154;SDS011;34212;51.018;13.586;2023-03-01T05:16:51;21.93;;;11.73;;
43154;SDS011;34212;51.018;13.586;2023-03-01T05:21:53;21.30;;;11.10;;
43154;SDS011;34212;51.018;13.586;2023-03-01T05:27:03;18.52;;;11.00;;
43154;SDS011;34212;51.018;13.586;2023-03-01T05:32:04;18.17;;;11.27;;
43154;SDS011;34212;51.018;13.586;2023-03-01T05:37:06;17.27;;;10.98;;
43154;SDS011;34212;51.018;13.586;2023-03-01T05:42:10;23.03;;;11.00;;
43154;SDS011;34212;51.018;13.586;2023-03-01T05:47:12;20.45;;;11.38;;
43154;SDS011;34212;51.018;13.586;2023-03-01T05:52:14;27.55;;;13.73;;
43154;SDS011;34212;51.018;13.586;2023-03-01T05:57:15;24.30;;;12.90;;
43154;SDS011;34212;51.018;13.586;2023-03-01T06:02:17;29.15;;;16.05;;
43154;SDS011;34212;51.018;13.586;2023-03-01T06:07:19;22.15;;;12.52;;
43154;SDS011;34212;51.018;13.586;2023-03-01T06:12:21;22.27;;;11.75;;
43154;SDS011;34212;51.018;13.586;2023-03-01T06:17:22;19.98;;;10.57;;
43154;SDS011;34212;51.018;13.586;2023-03-01T06:22:24;20.27;;;12.00;;
43154;SDS011;34212;51.018;13.586;2023-03-01T06:27:27;22.17;;;11.77;;
43154;SDS011;34212;51.018;13.586;2023-03-01T06:32:28;17.67;;;11.57;;
43154;SDS011;34212;51.018;13.586;2023-03-01T06:37:31;19.58;;;12.15;;
43154;SDS011;34212;51.018;13.586;2023-03-01T06:42:33;21.83;;;12.13;;
43154;SDS011;34212;51.018;13.586;2023-03-01T06:47:36;22.55;;;13.00;;
43154;SDS011;34212;51.018;13.586;2023-03-01T06:52:37;25.27;;;14.07;;
43154;SDS011;34212;51.018;13.586;2023-03-01T06:57:39;24.75;;;14.07;;
43154;SDS011;34212;51.018;13.586;2023-03-01T07:02:40;23.33;;;14.35;;
43154;SDS011;34212;51.018;13.586;2023-03-01T07:07:42;24.42;;;14.23;;
43154;SDS011;34212;51.018;13.586;2023-03-01T07:12:43;25.42;;;13.90;;
43154;SDS011;34212;51.018;13.586;2023-03-01T07:17:45;25.58;;;14.85;;
43154;SDS011;34212;51.018;13.586;2023-03-01T07:22:49;27.63;;;14.65;;
43154;SDS011;34212;51.018;13.586;2023-03-01T07:27:51;25.95;;;15.15;;
43154;SDS011;34212;51.018;13.586;2023-03-01T07:32:57;28.08;;;17.90;;
43154;SDS011;34212;51.018;13.586;2023-03-01T07:37:59;26.80;;;16.70;;
43154;SDS011;34212;51.018;13.586;2023-03-01T07:43:00;31.92;;;17.90;;
43154;SDS011;34212;51.018;13.586;2023-03-01T07:48:02;32.78;;;17.90;;
43154;SDS011;34212;51.018;13.586;2023-03-01T07:53:04;33.05;;;19.08;;
43154;SDS011;34212;51.018;13.586;2023-03-01T07:58:05;31.42;;;18.85;;
43154;SDS011;34212;51.018;13.586;2023-03-01T08:03:07;37.63;;;20.08;;
43154;SDS011;34212;51.018;13.586;2023-03-01T08:08:18;35.25;;;20.30;;
43154;SDS011;34212;51.018;13.586;2023-03-01T08:13:20;36.50;;;19.25;;
43154;SDS011;34212;51.018;13.586;2023-03-01T08:23:26;31.35;;;19.55;;
43154;SDS011;34212;51.018;13.586;2023-03-01T08:28:27;30.52;;;18.58;;
43154;SDS011;34212;51.018;13.586;2023-03-01T08:33:29;38.03;;;21.42;;
43154;SDS011;34212;51.018;13.586;2023-03-01T08:38:30;33.75;;;20.35;;
43154;SDS011;34212;51.018;13.586;2023-03-01T08:43:32;35.10;;;21.77;;
43154;SDS011;34212;51.018;13.586;2023-03-01T08:48:33;34.47;;;21.92;;
43154;SDS011;34212;51.018;13.586;2023-03-01T08:53:35;41.28;;;22.73;;
43154;SDS011;34212;51.018;13.586;2023-03-01T08:58:37;39.30;;;20.70;;
43154;SDS011;34212;51.018;13.586;2023-03-01T09:03:39;36.65;;;21.05;;
43154;SDS011;34212;51.018;13.586;2023-03-01T09:08:41;39.85;;;20.30;;
43154;SDS011;34212;51.018;13.586;2023-03-01T09:13:45;30.73;;;18.45;;
43154;SDS011;34212;51.018;13.586;2023-03-01T09:18:49;34.75;;;21.55;;
43154;SDS011;34212;51.018;13.586;2023-03-01T09:23:55;33.90;;;20.38;;
43154;SDS011;34212;51.018;13.586;2023-03-01T09:28:58;33.53;;;20.25;;
43154;SDS011;34212;51.018;13.586;2023-03-01T09:33:59;35.58;;;20.48;;
43154;SDS011;34212;51.018;13.586;2023-03-01T09:39:01;35.33;;;21.95;;
43154;SDS011;34212;51.018;13.586;2023-03-01T09:44:20;34.33;;;20.48;;
43154;SDS011;34212;51.018;13.586;2023-03-01T09:49:33;38.30;;;22.85;;
43154;SDS011;34212;51.018;13.586;2023-03-01T09:54:40;34.90;;;21.02;;
43154;SDS011;34212;51.018;13.586;2023-03-01T10:10:31;30.77;;;19.58;;
43154;SDS011;34212;51.018;13.586;2023-03-01T10:15:37;33.65;;;19.92;;
43154;SDS011;34212;51.018;13.586;2023-03-01T10:20:49;31.33;;;18.67;;
43154;SDS011;34212;51.018;13.586;2023-03-01T10:31:25;30.15;;;19.92;;
43154;SDS011;34212;51.018;13.586;2023-03-01T10:36:31;37.90;;;20.35;;
43154;SDS011;34212;51.018;13.586;2023-03-01T10:46:41;32.65;;;19.38;;
43154;SDS011;34212;51.018;13.586;2023-03-01T10:51:44;31.00;;;19.40;;
43154;SDS011;34212;51.018;13.586;2023-03-01T10:56:48;30.35;;;18.75;;
43154;SDS011;34212;51.018;13.586;2023-03-01T11:02:12;29.13;;;19.05;;
43154;SDS011;34212;51.018;13.586;2023-03-01T11:07:26;31.50;;;20.52;;
43154;SDS011;34212;51.018;13.586;2023-03-01T11:12:27;29.98;;;17.73;;
43154;SDS011;34212;51.018;13.586;2023-03-01T11:17:31;27.48;;;16.92;;
43154;SDS011;34212;51.018;13.586;2023-03-01T11:22:49;25.85;;;16.70;;
43154;SDS011;34212;51.018;13.586;2023-03-01T11:27:56;29.08;;;18.15;;
43154;SDS011;34212;51.018;13.586;2023-03-01T11:38:22;29.48;;;16.55;;
43154;SDS011;34212;51.018;13.586;2023-03-01T11:43:28;27.05;;;16.58;;
43154;SDS011;34212;51.018;13.586;2023-03-01T11:48:50;24.48;;;16.35;;
43154;SDS011;34212;51.018;13.586;2023-03-01T12:10:14;23.13;;;14.95;;
43154;SDS011;34212;51.018;13.586;2023-03-01T12:26:31;19.23;;;13.82;;
43154;SDS011;34212;51.018;13.586;2023-03-01T12:31:40;25.75;;;14.48;;
43154;SDS011;34212;51.018;13.586;2023-03-01T12:53:35;22.17;;;12.05;;
43154;SDS011;34212;51.018;13.586;2023-03-01T13:14:39;18.63;;;11.15;;
43154;SDS011;34212;51.018;13.586;2023-03-01T13:19:33;17.23;;;11.48;;
43154;SDS011;34212;51.018;13.586;2023-03-01T13:24:38;16.10;;;11.75;;
43154;SDS011;34212;51.018;13.586;2023-03-01T13:34:50;22.08;;;12.48;;
43154;SDS011;34212;51.018;13.586;2023-03-01T13:39:53;20.30;;;13.10;;
43154;SDS011;34212;51.018;13.586;2023-03-01T13:44:54;25.88;;;14.00;;
43154;SDS011;34212;51.018;13.586;2023-03-01T13:49:57;20.83;;;13.43;;
43154;SDS011;34212;51.018;13.586;2023-03-01T13:55:02;21.30;;;13.45;;
43154;SDS011;34212;51.018;13.586;2023-03-01T14:00:24;17.55;;;12.30;;
43154;SDS011;34212;51.018;13.586;2023-03-01T14:05:26;20.55;;;13.93;;
43154;SDS011;34212;51.018;13.586;2023-03-01T14:10:31;18.88;;;12.75;;
43154;SDS011;34212;51.018;13.586;2023-03-01T14:15:40;19.10;;;12.73;;
43154;SDS011;34212;51.018;13.586;2023-03-01T14:20:49;19.58;;;13.20;;
43154;SDS011;34212;51.018;13.586;2023-03-01T14:25:54;20.48;;;13.02;;
43154;SDS011;34212;51.018;13.586;2023-03-01T14:30:58;18.38;;;12.60;;
43154;SDS011;34212;51.018;13.586;2023-03-01T14:36:08;23.00;;;12.93;;
43154;SDS011;34212;51.018;13.586;2023-03-01T14:41:19;23.13;;;13.73;;
43154;SDS011;34212;51.018;13.586;2023-03-01T14:46:26;23.45;;;13.80;;
43154;SDS011;34212;51.018;13.586;2023-03-01T14:51:37;22.95;;;12.88;;
43154;SDS011;34212;51.018;13.586;2023-03-01T14:56:44;23.08;;;14.02;;
43154;SDS011;34212;51.018;13.586;2023-03-01T15:01:46;22.45;;;13.60;;
43154;SDS011;34212;51.018;13.586;2023-03-01T15:06:52;25.93;;;13.93;;
43154;SDS011;34212;51.018;13.586;2023-03-01T15:11:55;21.75;;;13.82;;
43154;SDS011;34212;51.018;13.586;2023-03-01T15:16:56;24.10;;;14.80;;
43154;SDS011;34212;51.018;13.586;2023-03-01T15:21:58;26.08;;;14.52;;
43154;SDS011;34212;51.018;13.586;2023-03-01T15:27:00;23.50;;;14.07;;
43154;SDS011;34212;51.018;13.586;2023-03-01T15:32:23;22.27;;;13.93;;
43154;SDS011;34212;51.018;13.586;2023-03-01T15:42:41;20.73;;;13.55;;
43154;SDS011;34212;51.018;13.586;2023-03-01T15:47:55;20.52;;;12.00;;
43154;SDS011;34212;51.018;13.586;2023-03-01T15:52:59;19.20;;;13.02;;
43154;SDS011;34212;51.018;13.586;2023-03-01T15:58:18;20.98;;;12.95;;
43154;SDS011;34212;51.018;13.586;2023-03-01T16:03:22;21.40;;;12.88;;
43154;SDS011;34212;51.018;13.586;2023-03-01T16:08:24;19.85;;;12.30;;
43154;SDS011;34212;51.018;13.586;2023-03-01T16:13:25;16.95;;;11.82;;
43154;SDS011;34212;51.018;13.586;2023-03-01T16:18:29;22.55;;;13.50;;
43154;SDS011;34212;51.018;13.586;2023-03-01T16:23:31;22.10;;;13.43;;
43154;SDS011;34212;51.018;13.586;2023-03-01T16:28:32;20.58;;;12.60;;
43154;SDS011;34212;51.018;13.586;2023-03-01T16:33:34;21.25;;;12.85;;
43154;SDS011;34212;51.018;13.586;2023-03-01T16:38:36;20.67;;;12.10;;
43154;SDS011;34212;51.018;13.586;2023-03-01T16:43:38;25.27;;;14.40;;
43154;SDS011;34212;51.018;13.586;2023-03-01T16:48:40;25.40;;;14.65;;
43154;SDS011;34212;51.018;13.586;2023-03-01T16:53:42;24.98;;;13.50;;
43154;SDS011;34212;51.018;13.586;2023-03-01T16:58:47;22.08;;;14.70;;
43154;SDS011;34212;51.018;13.586;2023-03-01T17:03:49;21.38;;;14.52;;
43154;SDS011;34212;51.018;13.586;2023-03-01T17:08:50;27.50;;;15.00;;
43154;SDS011;34212;51.018;13.586;2023-03-01T17:13:52;24.77;;;14.95;;
43154;SDS011;34212;51.018;13.586;2023-03-01T17:18:53;22.65;;;14.40;;
43154;SDS011;34212;51.018;13.586;2023-03-01T17:23:56;25.65;;;12.85;;
43154;SDS011;34212;51.018;13.586;2023-03-01T17:28:59;24.63;;;13.18;;
43154;SDS011;34212;51.018;13.586;2023-03-01T17:34:01;21.60;;;13.45;;
43154;SDS011;34212;51.018;13.586;2023-03-01T17:39:02;22.27;;;13.95;;
43154;SDS011;34212;51.018;13.586;2023-03-01T17:44:04;25.10;;;14.77;;
43154;SDS011;34212;51.018;13.586;2023-03-01T17:49:06;25.73;;;14.70;;
43154;SDS011;34212;51.018;13.586;2023-03-01T17:54:07;31.98;;;15.35;;
43154;SDS011;34212;51.018;13.586;2023-03-01T17:59:09;84.10;;;39.40;;
43154;SDS011;34212;51.018;13.586;2023-03-01T18:04:10;120.90;;;58.58;;
43154;SDS011;34212;51.018;13.586;2023-03-01T18:09:12;42.88;;;23.92;;
43154;SDS011;34212;51.018;13.586;2023-03-01T18:14:14;55.75;;;31.35;;
43154;SDS011;34212;51.018;13.586;2023-03-01T18:19:16;38.08;;;24.90;;
43154;SDS011;34212;51.018;13.586;2023-03-01T18:24:17;44.55;;;24.98;;
43154;SDS011;34212;51.018;13.586;2023-03-01T18:29:19;52.30;;;29.35;;
43154;SDS011;34212;51.018;13.586;2023-03-01T18:34:20;45.28;;;27.00;;
43154;SDS011;34212;51.018;13.586;2023-03-01T18:39:23;30.20;;;17.77;;
43154;SDS011;34212;51.018;13.586;2023-03-01T18:44:25;32.00;;;17.90;;
43154;SDS011;34212;51.018;13.586;2023-03-01T18:49:26;32.83;;;18.27;;
43154;SDS011;34212;51.018;13.586;2023-03-01T18:54:28;27.33;;;16.02;;
43154;SDS011;34212;51.018;13.586;2023-03-01T18:59:29;28.52;;;17.52;;
43154;SDS011;34212;51.018;13.586;2023-03-01T19:04:31;28.63;;;18.73;;
43154;SDS011;34212;51.018;13.586;2023-03-01T19:09:32;31.00;;;19.17;;
43154;SDS011;34212;51.018;13.586;2023-03-01T19:14:34;34.03;;;19.45;;
43154;SDS011;34212;51.018;13.586;2023-03-01T19:19:37;26.15;;;15.45;;
43154;SDS011;34212;51.018;13.586;2023-03-01T19:24:39;25.92;;;15.60;;
43154;SDS011;34212;51.018;13.586;2023-03-01T19:29:42;25.63;;;14.48;;
43154;SDS011;34212;51.018;13.586;2023-03-01T19:34:44;23.73;;;14.00;;
43154;SDS011;34212;51.018;13.586;2023-03-01T19:39:46;21.83;;;13.50;;
43154;SDS011;34212;51.018;13.586;2023-03-01T19:44:48;24.83;;;14.15;;
43154;SDS011;34212;51.018;13.586;2023-03-01T19:49:49;23.38;;;14.25;;
43154;SDS011;34212;51.018;13.586;2023-03-01T19:54:51;23.83;;;14.35;;
43154;SDS011;34212;51.018;13.586;2023-03-01T20:00:05;22.67;;;13.98;;
43154;SDS011;34212;51.018;13.586;2023-03-01T20:05:12;22.73;;;14.55;;
43154;SDS011;34212;51.018;13.586;2023-03-01T20:10:14;25.85;;;16.02;;
43154;SDS011;34212;51.018;13.586;2023-03-01T20:15:15;33.20;;;17.95;;
43154;SDS011;34212;51.018;13.586;2023-03-01T20:20:17;28.02;;;19.42;;
43154;SDS011;34212;51.018;13.586;2023-03-01T20:25:18;31.05;;;18.95;;
43154;SDS011;34212;51.018;13.586;2023-03-01T20:30:20;34.88;;;17.70;;
43154;SDS011;34212;51.018;13.586;2023-03-01T20:35:21;30.73;;;17.67;;
43154;SDS011;34212;51.018;13.586;2023-03-01T20:40:24;24.45;;;15.23;;
43154;SDS011;34212;51.018;13.586;2023-03-01T20:45:28;25.45;;;15.38;;
43154;SDS011;34212;51.018;13.586;2023-03-01T20:50:29;23.90;;;13.40;;
43154;SDS011;34212;51.018;13.586;2023-03-01T20:55:31;25.42;;;13.30;;
43154;SDS011;34212;51.018;13.586;2023-03-01T21:00:33;22.30;;;12.10;;
43154;SDS011;34212;51.018;13.586;2023-03-01T21:05:34;22.73;;;12.73;;
43154;SDS011;34212;51.018;13.586;2023-03-01T21:10:36;23.00;;;12.95;;
43154;SDS011;34212;51.018;13.586;2023-03-01T21:15:37;23.83;;;13.35;;
43154;SDS011;34212;51.018;13.586;2023-03-01T21:20:39;26.05;;;13.73;;
43154;SDS011;34212;51.018;13.586;2023-03-01T21:25:43;25.60;;;15.32;;
43154;SDS011;34212;51.018;13.586;2023-03-01T21:36:15;25.27;;;14.43;;
43154;SDS011;34212;51.018;13.586;2023-03-01T21:41:21;25.70;;;14.00;;
43154;SDS011;34212;51.018;13.586;2023-03-01T21:46:26;30.25;;;15.02;;
43154;SDS011;34212;51.018;13.586;2023-03-01T21:51:31;27.08;;;15.05;;
43154;SDS011;34212;51.018;13.586;2023-03-01T21:56:33;26.00;;;16.20;;
43154;SDS011;34212;51.018;13.586;2023-03-01T22:01:38;26.35;;;15.20;;
43154;SDS011;34212;51.018;13.586;2023-03-01T22:06:41;30.20;;;14.95;;
43154;SDS011;34212;51.018;13.586;2023-03-01T22:11:45;27.00;;;15.95;;
43154;SDS011;34212;51.018;13.586;2023-03-01T22:16:48;29.70;;;16.23;;
43154;SDS011;34212;51.018;13.586;2023-03-01T22:21:51;28.48;;;15.85;;
43154;SDS011;34212;51.018;13.586;2023-03-01T22:26:53;30.50;;;16.52;;
43154;SDS011;34212;51.018;13.586;2023-03-01T22:31:56;27.05;;;16.38;;
43154;SDS011;34212;51.018;13.586;2023-03-01T22:42:00;28.50;;;15.00;;
43154;SDS011;34212;51.018;13.586;2023-03-01T22:47:01;27.73;;;15.88;;
43154;SDS011;34212;51.018;13.586;2023-03-01T22:52:03;29.30;;;16.95;;
43154;SDS011;34212;51.018;13.586;2023-03-01T22:57:04;28.25;;;16.50;;
43154;SDS011;34212;51.018;13.586;2023-03-01T23:02:06;27.83;;;15.40;;
43154;SDS011;34212;51.018;13.586;2023-03-01T23:07:08;25.45;;;15.95;;
43154;SDS011;34212;51.018;13.586;2023-03-01T23:12:09;25.80;;;15.63;;
43154;SDS011;34212;51.018;13.586;2023-03-01T23:17:11;26.10;;;15.50;;
43154;SDS011;34212;51.018;13.586;2023-03-01T23:22:13;28.77;;;15.35;;
43154;SDS011;34212;51.018;13.586;2023-03-01T23:27:14;23.75;;;14.38;;
43154;SDS011;34212;51.018;13.586;2023-03-01T23:32:18;24.95;;;14.20;;
43154;SDS011;34212;51.018;13.586;2023-03-01T23:37:20;23.70;;;14.57;;
43154;SDS011;34212;51.018;13.586;2023-03-01T23:42:21;25.63;;;15.88;;
43154;SDS011;34212;51.018;13.586;2023-03-01T23:47:23;25.77;;;14.23;;
43154;SDS011;34212;51.018;13.586;2023-03-01T23:52:24;23.13;;;13.13;;
43154;SDS011;34212;51.018;13.586;2023-03-01T23:57:26;26.83;;;14.75;;
